createdAt,value
2024-02-01T00:00:14.380Z,37.35
2024-02-01T00:03:19.561Z,35.75
2024-02-01T00:06:24.416Z,35.10
2024-02-01T00:09:29.061Z,32.83
2024-02-01T00:12:33.933Z,33.17
2024-02-01T00:15:38.900Z,32.30
2024-02-01T00:18:43.964Z,30.58
2024-02-01T00:21:50.473Z,30.95
2024-02-01T00:24:55.486Z,27.33
2024-02-01T00:28:01.304Z,31.08
2024-02-01T00:31:06.149Z,29.10
2024-02-01T00:34:11.049Z,27.60
2024-02-01T00:37:16.038Z,26.13
2024-02-01T00:40:20.854Z,22.73
2024-02-01T00:43:25.786Z,22.63
2024-02-01T00:46:30.697Z,21.33
2024-02-01T00:49:36.402Z,20.17
2024-02-01T00:52:41.381Z,20.52
2024-02-01T00:55:46.217Z,19.77
2024-02-01T00:58:51.217Z,19.67
2024-02-01T01:01:56.325Z,18.30
2024-02-01T01:05:01.269Z,18.42
2024-02-01T01:08:06.929Z,17.20
2024-02-01T01:11:11.310Z,18.27
2024-02-01T01:14:16.334Z,15.02
2024-02-01T01:17:21.330Z,19.23
2024-02-01T01:20:26.311Z,17.65
2024-02-01T01:23:31.060Z,13.38
2024-02-01T01:26:35.838Z,15.45
2024-02-01T01:29:40.720Z,12.93
2024-02-01T01:32:45.585Z,13.95
2024-02-01T01:35:50.407Z,12.80
2024-02-01T01:38:56.584Z,13.27
2024-02-01T01:42:01.888Z,12.50
2024-02-01T01:45:07.269Z,13.77
2024-02-01T01:48:12.899Z,11.48
2024-02-01T01:51:18.418Z,12.52
2024-02-01T01:54:25.214Z,11.13
2024-02-01T01:57:30.384Z,9.27
2024-02-01T02:00:35.879Z,8.45
2024-02-01T02:03:42.734Z,6.05
2024-02-01T02:06:47.828Z,5.70
2024-02-01T02:09:52.809Z,5.63
2024-02-01T02:12:57.882Z,3.13
2024-02-01T02:16:02.935Z,2.33
2024-02-01T02:19:10.757Z,2.78
2024-02-01T02:22:16.071Z,3.97
2024-02-01T02:25:22.065Z,3.35
2024-02-01T02:28:26.929Z,3.22
2024-02-01T02:34:37.394Z,3.40
2024-02-01T02:37:49.890Z,4.57
2024-02-01T02:40:54.806Z,3.85
2024-02-01T02:43:59.803Z,4.63
2024-02-01T02:47:05.192Z,5.63
2024-02-01T02:50:10.330Z,3.63
2024-02-01T02:53:15.614Z,5.57
2024-02-01T02:56:20.391Z,5.90
2024-02-01T02:59:25.428Z,4.65
2024-02-01T03:02:30.437Z,5.72
2024-02-01T03:05:36.472Z,6.10
2024-02-01T03:08:45.020Z,7.47
2024-02-01T03:11:49.886Z,5.82
2024-02-01T03:14:55.933Z,6.00
2024-02-01T03:18:01.003Z,7.13
2024-02-01T03:21:10.747Z,8.60
2024-02-01T03:24:15.862Z,8.02
2024-02-01T03:27:20.799Z,8.90
2024-02-01T03:30:25.749Z,6.05
2024-02-01T03:36:36.431Z,8.23
2024-02-01T03:39:41.580Z,7.35
2024-02-01T03:42:47.440Z,9.68
2024-02-01T03:45:52.301Z,8.60
2024-02-01T03:48:57.363Z,8.52
2024-02-01T03:52:02.778Z,4.78
2024-02-01T03:55:17.619Z,7.55
2024-02-01T03:58:22.696Z,7.13
2024-02-01T04:01:27.677Z,6.97
2024-02-01T04:04:33.135Z,7.63
2024-02-01T04:07:40.955Z,8.38
2024-02-01T04:10:46.999Z,6.60
2024-02-01T04:13:51.898Z,8.18
2024-02-01T04:16:56.814Z,6.22
2024-02-01T04:20:01.843Z,8.45
2024-02-01T04:23:06.810Z,6.68
2024-02-01T04:26:16.566Z,7.75
2024-02-01T04:29:21.778Z,7.00
2024-02-01T04:32:26.627Z,7.03
2024-02-01T04:35:31.651Z,8.27
2024-02-01T04:38:37.506Z,7.70
2024-02-01T04:41:44.866Z,6.93
2024-02-01T04:44:51.228Z,8.13
2024-02-01T04:47:56.295Z,7.68
2024-02-01T04:51:01.132Z,8.65
2024-02-01T04:54:05.867Z,8.27
2024-02-01T04:57:15.006Z,12.48
2024-02-01T05:00:22.468Z,8.68
2024-02-01T05:03:29.587Z,8.65
2024-02-01T05:06:34.881Z,7.80
2024-02-01T05:09:41.025Z,7.68
2024-02-01T05:12:45.928Z,8.95
2024-02-01T05:15:50.826Z,7.80
2024-02-01T05:18:56.050Z,8.85
2024-02-01T05:22:01.653Z,9.77
2024-02-01T05:25:16.339Z,9.32
2024-02-01T05:28:23.973Z,9.38
2024-02-01T05:31:30.370Z,8.77
2024-02-01T05:34:36.264Z,8.18
2024-02-01T05:37:47.556Z,8.95
2024-02-01T05:40:52.895Z,9.60
2024-02-01T05:47:06.754Z,8.00
2024-02-01T05:50:14.280Z,8.68
2024-02-01T05:53:19.369Z,9.60
2024-02-01T05:56:24.212Z,10.27
2024-02-01T05:59:28.795Z,10.43
2024-02-01T06:02:33.929Z,8.10
2024-02-01T06:05:38.782Z,7.50
2024-02-01T06:08:43.706Z,7.85
2024-02-01T06:11:50.184Z,7.57
2024-02-01T06:14:55.627Z,7.75
2024-02-01T06:18:00.720Z,9.15
2024-02-01T06:21:06.544Z,8.07
2024-02-01T06:24:11.914Z,7.60
2024-02-01T06:27:17.036Z,8.82
2024-02-01T06:30:22.470Z,7.50
2024-02-01T06:33:30.489Z,7.03
2024-02-01T06:36:39.767Z,11.07
2024-02-01T06:40:10.714Z,9.18
2024-02-01T06:43:29.764Z,9.60
2024-02-01T06:46:58.705Z,9.60
2024-02-01T06:50:39.209Z,9.02
2024-02-01T06:53:55.557Z,8.68
2024-02-01T06:57:14.720Z,9.80
2024-02-01T07:00:39.013Z,9.55
2024-02-01T07:03:52.663Z,6.85
2024-02-01T07:07:18.583Z,8.85
2024-02-01T07:10:33.919Z,8.90
2024-02-01T07:13:54.206Z,8.80
2024-02-01T07:17:07.602Z,10.70
2024-02-01T07:20:24.551Z,9.60
2024-02-01T07:23:35.731Z,9.27
2024-02-01T07:26:45.197Z,10.73
2024-02-01T07:30:08.930Z,7.78
2024-02-01T07:33:32.361Z,9.60
2024-02-01T07:36:58.926Z,7.50
2024-02-01T07:40:22.495Z,7.63
2024-02-01T07:43:45.589Z,7.95
2024-02-01T07:47:09.011Z,8.27
2024-02-01T07:50:32.583Z,8.13
2024-02-01T07:53:56.309Z,8.05
2024-02-01T07:57:24.403Z,6.75
2024-02-01T08:00:29.933Z,8.15
2024-02-01T08:07:07.672Z,7.80
2024-02-01T08:10:12.426Z,6.53
2024-02-01T08:13:17.438Z,5.57
2024-02-01T08:19:38.681Z,7.13
2024-02-01T08:22:45.950Z,5.35
2024-02-01T08:25:52.253Z,8.27
2024-02-01T08:29:00.629Z,6.40
2024-02-01T08:32:07.233Z,6.88
2024-02-01T08:35:13.650Z,6.60
2024-02-01T08:38:18.436Z,4.97
2024-02-01T08:41:23.360Z,7.95
2024-02-01T08:44:27.994Z,7.68
2024-02-01T08:47:37.850Z,8.45
2024-02-01T08:50:51.954Z,6.40
2024-02-01T08:53:56.589Z,6.10
2024-02-01T08:57:01.704Z,6.47
2024-02-01T09:00:27.103Z,5.10
2024-02-01T09:03:33.653Z,7.20
2024-02-01T09:06:38.637Z,5.88
2024-02-01T09:09:44.376Z,6.72
2024-02-01T09:12:50.709Z,4.28
2024-02-01T09:15:59.690Z,5.32
2024-02-01T09:19:05.604Z,4.63
2024-02-01T09:22:10.803Z,6.32
2024-02-01T09:25:16.864Z,4.05
2024-02-01T09:31:27.083Z,4.20
2024-02-01T09:34:32.334Z,5.82
2024-02-01T09:37:37.637Z,4.38
2024-02-01T09:43:51.364Z,4.72
2024-02-01T09:46:57.418Z,4.00
2024-02-01T09:50:06.193Z,4.97
2024-02-01T09:53:11.328Z,3.55
2024-02-01T09:56:16.659Z,4.75
2024-02-01T09:59:21.354Z,5.10
2024-02-01T10:02:32.075Z,4.05
2024-02-01T10:05:37.452Z,4.00
2024-02-01T10:08:43.610Z,4.47
2024-02-01T10:11:49.213Z,3.22
2024-02-01T10:14:53.835Z,4.45
2024-02-01T10:17:59.651Z,3.70
2024-02-01T10:21:25.120Z,3.50
2024-02-01T10:24:32.421Z,4.60
2024-02-01T10:27:41.340Z,4.50
2024-02-01T10:30:46.688Z,3.80
2024-02-01T10:33:51.791Z,3.45
2024-02-01T10:37:01.851Z,4.90
2024-02-01T10:40:11.485Z,4.63
2024-02-01T10:43:18.763Z,5.53
2024-02-01T10:46:30.576Z,4.63
2024-02-01T10:49:39.310Z,4.85
2024-02-01T10:52:44.751Z,3.92
2024-02-01T10:55:49.601Z,4.78
2024-02-01T10:58:55.076Z,5.82
2024-02-01T11:02:00.139Z,3.72
2024-02-01T11:05:09.637Z,3.17
2024-02-01T11:08:18.097Z,4.30
2024-02-01T11:11:33.458Z,3.00
2024-02-01T11:14:39.563Z,3.05
2024-02-01T11:17:45.183Z,4.28
2024-02-01T11:20:59.726Z,5.97
2024-02-01T11:24:07.882Z,6.30
2024-02-01T11:27:17.672Z,5.07
2024-02-01T11:30:29.613Z,5.65
2024-02-01T11:33:35.843Z,4.57
2024-02-01T11:36:41.059Z,5.03
2024-02-01T11:39:46.926Z,5.32
2024-02-01T11:42:53.212Z,5.70
2024-02-01T11:45:58.315Z,4.35
2024-02-01T11:49:05.256Z,4.95
2024-02-01T11:52:21.989Z,5.63
2024-02-01T11:55:29.275Z,4.80
2024-02-01T11:58:35.022Z,4.82
2024-02-01T12:01:40.418Z,5.38
2024-02-01T12:04:47.482Z,5.22
2024-02-01T12:07:52.478Z,4.50
2024-02-01T12:10:59.807Z,4.80
2024-02-01T12:14:12.305Z,5.63
2024-02-01T12:17:18.669Z,6.78
2024-02-01T12:20:30.399Z,6.05
2024-02-01T12:23:38.275Z,5.35
2024-02-01T12:26:44.022Z,4.15
2024-02-01T12:29:50.504Z,5.15
2024-02-01T12:32:55.543Z,3.92
2024-02-01T12:39:09.452Z,5.40
2024-02-01T12:42:17.491Z,5.50
2024-02-01T12:45:22.946Z,4.28
2024-02-01T12:48:28.034Z,5.35
2024-02-01T12:54:41.325Z,4.03
2024-02-01T12:57:47.847Z,4.53
2024-02-01T13:00:54.107Z,5.28
2024-02-01T13:03:59.371Z,4.88
2024-02-01T13:07:05.127Z,5.82
2024-02-01T13:10:14.365Z,6.60
2024-02-01T13:13:19.330Z,4.20
2024-02-01T13:16:28.020Z,7.05
2024-02-01T13:19:33.358Z,4.90
2024-02-01T13:22:38.138Z,4.60
2024-02-01T13:25:43.401Z,6.45
2024-02-01T13:28:49.266Z,3.92
2024-02-01T13:31:56.599Z,6.78
2024-02-01T13:35:01.892Z,4.95
2024-02-01T13:38:07.433Z,4.63
2024-02-01T13:41:12.385Z,5.90
2024-02-01T13:44:17.063Z,6.28
2024-02-01T13:47:23.984Z,5.30
2024-02-01T13:50:28.986Z,4.38
2024-02-01T13:53:33.827Z,4.13
2024-02-01T13:56:40.086Z,4.15
2024-02-01T13:59:44.914Z,5.25
2024-02-01T14:05:54.701Z,5.32
2024-02-01T14:09:01.687Z,6.43
2024-02-01T14:12:07.534Z,6.25
2024-02-01T14:15:12.512Z,6.20
2024-02-01T14:18:17.574Z,5.28
2024-02-01T14:21:22.369Z,5.75
2024-02-01T14:24:27.464Z,6.72
2024-02-01T14:27:32.323Z,6.05
2024-02-01T14:30:37.797Z,6.28
2024-02-01T14:33:43.072Z,4.00
2024-02-01T14:36:48.918Z,4.82
2024-02-01T14:39:53.908Z,5.57
2024-02-01T14:46:04.118Z,3.90
2024-02-01T14:49:09.167Z,4.13
2024-02-01T14:52:17.885Z,5.38
2024-02-01T14:55:23.077Z,5.43
2024-02-01T14:58:28.029Z,3.90
2024-02-01T15:04:38.400Z,5.40
2024-02-01T15:07:43.931Z,6.68
2024-02-01T15:10:48.841Z,4.10
2024-02-01T15:13:54.507Z,3.42
2024-02-01T15:17:00.417Z,4.30
2024-02-01T15:20:09.101Z,4.90
2024-02-01T15:23:13.934Z,5.20
2024-02-01T15:26:18.827Z,6.10
2024-02-01T15:29:24.013Z,5.72
2024-02-01T15:32:28.875Z,4.50
2024-02-01T15:35:33.689Z,3.70
2024-02-01T15:38:42.119Z,2.95
2024-02-01T15:41:48.085Z,4.68
2024-02-01T15:44:53.279Z,5.00
2024-02-01T15:47:57.983Z,5.25
2024-02-01T15:51:03.178Z,4.78
2024-02-01T15:54:08.311Z,3.75
2024-02-01T15:57:13.396Z,5.10
2024-02-01T16:00:18.582Z,3.25
2024-02-01T16:03:26.350Z,5.40
2024-02-01T16:06:31.456Z,4.75
2024-02-01T16:09:40.686Z,4.80
2024-02-01T16:12:45.583Z,4.68
2024-02-01T16:15:50.589Z,5.07
2024-02-01T16:18:55.890Z,6.65
2024-02-01T16:22:02.059Z,6.30
2024-02-01T16:25:07.484Z,5.65
2024-02-01T16:28:26.438Z,6.00
2024-02-01T16:31:31.080Z,6.25
2024-02-01T16:34:41.915Z,5.15
2024-02-01T16:37:47.049Z,5.70
2024-02-01T16:40:52.511Z,7.80
2024-02-01T16:43:57.423Z,7.15
2024-02-01T16:47:02.324Z,7.88
2024-02-01T16:50:26.017Z,7.18
2024-02-01T16:53:30.988Z,6.78
2024-02-01T16:56:36.037Z,8.02
2024-02-01T16:59:41.097Z,7.45
2024-02-01T17:02:57.398Z,6.28
2024-02-01T17:06:08.000Z,6.32
2024-02-01T17:09:13.869Z,6.53
2024-02-01T17:12:19.380Z,7.13
2024-02-01T17:15:27.126Z,5.72
2024-02-01T17:18:35.150Z,9.88
2024-02-01T17:21:45.236Z,6.10
2024-02-01T17:24:50.330Z,8.40
2024-02-01T17:27:55.181Z,9.20
2024-02-01T17:30:59.962Z,8.02
2024-02-01T17:37:27.228Z,7.22
2024-02-01T17:40:38.603Z,6.60
2024-02-01T17:43:51.999Z,6.82
2024-02-01T17:47:08.208Z,7.72
2024-02-01T17:50:33.769Z,6.40
2024-02-01T17:53:38.931Z,6.25
2024-02-01T17:56:45.478Z,6.65
2024-02-01T17:59:52.207Z,8.05
2024-02-01T18:03:00.339Z,9.15
2024-02-01T18:06:08.562Z,5.53
2024-02-01T18:09:22.450Z,7.90
2024-02-01T18:12:27.711Z,5.95
2024-02-01T18:15:49.860Z,6.40
2024-02-01T18:19:07.976Z,6.40
2024-02-01T18:22:13.280Z,7.45
2024-02-01T18:25:35.083Z,5.32
2024-02-01T18:28:42.102Z,7.38
2024-02-01T18:31:46.879Z,10.60
2024-02-01T18:34:52.258Z,9.48
2024-02-01T18:37:57.544Z,6.20
2024-02-01T18:44:13.188Z,5.88
2024-02-01T18:47:26.725Z,6.85
2024-02-01T18:50:39.390Z,7.20
2024-02-01T18:53:55.640Z,7.95
2024-02-01T18:57:02.354Z,7.60
2024-02-01T19:00:14.487Z,7.38
2024-02-01T19:03:36.473Z,6.70
2024-02-01T19:06:42.744Z,9.02
2024-02-01T19:09:48.684Z,6.38
2024-02-01T19:12:53.275Z,6.55
2024-02-01T19:15:58.073Z,6.80
2024-02-01T19:22:18.290Z,7.22
2024-02-01T19:25:25.929Z,6.03
2024-02-01T19:28:51.901Z,7.53
2024-02-01T19:35:01.637Z,7.30
2024-02-01T19:38:15.044Z,6.68
2024-02-01T19:41:21.029Z,6.13
2024-02-01T19:44:26.116Z,7.32
2024-02-01T19:47:31.260Z,6.25
2024-02-01T19:50:36.231Z,6.50
2024-02-01T19:53:41.248Z,6.63
2024-02-01T19:56:46.297Z,6.07
2024-02-01T19:59:51.762Z,5.60
2024-02-01T20:02:57.339Z,6.97
2024-02-01T20:06:03.493Z,7.65
2024-02-01T20:09:10.157Z,6.97
2024-02-01T20:12:16.389Z,6.35
2024-02-01T20:15:22.841Z,6.28
2024-02-01T20:18:28.617Z,6.80
2024-02-01T20:21:36.623Z,8.63
2024-02-01T20:24:41.945Z,8.48
2024-02-01T20:27:49.696Z,6.38
2024-02-01T20:30:54.617Z,10.45
2024-02-01T20:34:00.999Z,6.45
2024-02-01T20:37:07.209Z,8.10
2024-02-01T20:40:42.878Z,7.28
2024-02-01T20:43:49.681Z,6.18
2024-02-01T20:46:54.420Z,6.50
2024-02-01T20:50:00.655Z,5.85
2024-02-01T20:53:18.201Z,7.35
2024-02-01T20:56:23.728Z,5.68
2024-02-01T20:59:41.596Z,7.22
2024-02-01T21:03:00.407Z,5.38
2024-02-01T21:06:05.810Z,6.18
2024-02-01T21:09:13.132Z,6.65
2024-02-01T21:12:19.977Z,5.47
2024-02-01T21:15:25.020Z,7.07
2024-02-01T21:18:34.108Z,6.90
2024-02-01T21:21:39.251Z,5.07
2024-02-01T21:24:44.879Z,7.68
2024-02-01T21:30:55.652Z,5.93
2024-02-01T21:34:01.313Z,5.40
2024-02-01T21:37:10.199Z,5.05
2024-02-01T21:40:18.303Z,4.82
2024-02-01T21:43:23.489Z,6.30
2024-02-01T21:46:34.521Z,6.53
2024-02-01T21:49:39.514Z,5.68
2024-02-01T21:52:44.534Z,5.60
2024-02-01T21:55:49.594Z,5.05
2024-02-01T21:58:54.584Z,6.78
2024-02-01T22:01:59.647Z,7.25
2024-02-01T22:05:05.354Z,7.15
2024-02-01T22:08:10.646Z,4.15
2024-02-01T22:11:15.418Z,7.63
2024-02-01T22:14:20.353Z,5.03
2024-02-01T22:17:25.640Z,5.57
2024-02-01T22:23:36.021Z,7.32
2024-02-01T22:26:40.923Z,7.05
2024-02-01T22:29:45.796Z,8.07
2024-02-01T22:32:50.732Z,6.72
2024-02-01T22:35:55.497Z,6.07
2024-02-01T22:39:00.404Z,8.13
2024-02-01T22:42:07.887Z,9.00
2024-02-01T22:45:13.285Z,7.20
2024-02-01T22:48:18.328Z,8.40
2024-02-01T22:51:23.528Z,6.72
2024-02-01T22:54:28.466Z,7.78
2024-02-01T22:57:33.380Z,7.57
2024-02-01T23:00:38.329Z,7.38
2024-02-01T23:03:43.358Z,5.68
2024-02-01T23:06:48.758Z,5.32
2024-02-01T23:09:54.400Z,5.65
2024-02-01T23:12:59.154Z,7.25
2024-02-01T23:16:04.356Z,7.22
2024-02-01T23:19:09.665Z,7.15
2024-02-01T23:25:19.384Z,6.40
2024-02-01T23:28:24.268Z,7.85
2024-02-01T23:31:29.142Z,6.28
2024-02-01T23:34:34.141Z,6.95
2024-02-01T23:37:38.951Z,7.15
2024-02-01T23:40:44.241Z,7.63
2024-02-01T23:43:49.348Z,6.65
2024-02-01T23:46:54.168Z,4.88
2024-02-01T23:49:58.927Z,6.68
2024-02-01T23:53:04.081Z,7.57
2024-02-01T23:56:09.484Z,6.63
2024-02-01T23:59:14.535Z,9.95
